createdAt,value
2022-09-15T00:00:55.215Z,18.86
2022-09-15T00:03:22.905Z,18.81
2022-09-15T00:05:50.863Z,18.84
2022-09-15T00:08:17.613Z,18.82
2022-09-15T00:10:58.513Z,18.86
2022-09-15T00:13:26.357Z,18.80
2022-09-15T00:15:53.358Z,18.73
2022-09-15T00:18:20.551Z,18.79
2022-09-15T00:20:47.209Z,18.85
2022-09-15T00:23:15.375Z,18.88
2022-09-15T00:25:49.815Z,18.64
2022-09-15T00:28:18.814Z,18.63
2022-09-15T00:30:50.398Z,18.68
2022-09-15T00:33:17.776Z,18.62
2022-09-15T00:35:46.099Z,18.47
2022-09-15T00:38:14.433Z,18.40
2022-09-15T00:40:52.823Z,18.20
2022-09-15T00:43:21.734Z,18.08
2022-09-15T00:45:48.714Z,18.49
2022-09-15T00:48:19.070Z,18.27
2022-09-15T00:50:49.372Z,18.26
2022-09-15T00:53:16.332Z,18.13
2022-09-15T00:55:47.464Z,18.20
2022-09-15T00:58:30.730Z,18.22
2022-09-15T01:01:00.805Z,18.22
2022-09-15T01:03:31.264Z,18.23
2022-09-15T01:06:27.128Z,18.43
2022-09-15T01:08:58.569Z,18.45
2022-09-15T01:11:25.427Z,18.18
2022-09-15T01:13:52.232Z,18.05
2022-09-15T01:16:43.269Z,18.13
2022-09-15T01:19:34.892Z,18.20
2022-09-15T01:22:04.707Z,18.10
2022-09-15T01:25:01.796Z,18.18
2022-09-15T01:27:52.144Z,18.00
2022-09-15T01:30:23.824Z,17.86
2022-09-15T01:33:05.685Z,17.95
2022-09-15T01:35:52.251Z,18.07
2022-09-15T01:38:35.599Z,18.04
2022-09-15T01:41:17.439Z,17.97
2022-09-15T01:44:01.197Z,18.03
2022-09-15T01:46:31.994Z,18.13
2022-09-15T01:48:59.630Z,18.15
2022-09-15T01:51:27.304Z,18.15
2022-09-15T01:53:54.963Z,18.27
2022-09-15T01:56:21.833Z,18.23
2022-09-15T01:58:49.894Z,18.29
2022-09-15T02:01:22.269Z,18.36
2022-09-15T02:03:51.803Z,18.20
2022-09-15T02:06:40.911Z,18.20
2022-09-15T02:09:13.970Z,18.01
2022-09-15T02:12:07.717Z,18.00
2022-09-15T02:15:03.260Z,17.88
2022-09-15T02:17:36.155Z,17.71
2022-09-15T02:20:15.558Z,17.81
2022-09-15T02:22:47.710Z,17.77
2022-09-15T02:25:19.088Z,17.89
2022-09-15T02:27:55.089Z,18.03
2022-09-15T02:30:22.504Z,18.10
2022-09-15T02:32:54.655Z,18.14
2022-09-15T02:35:21.899Z,18.11
2022-09-15T02:37:49.065Z,18.30
2022-09-15T02:40:16.547Z,18.40
2022-09-15T02:42:53.208Z,18.51
2022-09-15T02:45:20.369Z,18.44
2022-09-15T02:47:47.081Z,18.44
2022-09-15T02:50:13.922Z,18.20
2022-09-15T02:52:40.592Z,18.38
2022-09-15T02:55:07.716Z,18.42
2022-09-15T02:57:34.466Z,18.28
2022-09-15T03:00:13.404Z,18.15
2022-09-15T03:02:45.902Z,18.11
2022-09-15T03:05:14.264Z,17.95
2022-09-15T03:07:41.205Z,17.97
2022-09-15T03:10:09.050Z,18.11
2022-09-15T03:12:46.878Z,18.07
2022-09-15T03:15:15.739Z,18.16
2022-09-15T03:17:43.811Z,18.27
2022-09-15T03:20:14.181Z,18.19
2022-09-15T03:22:41.095Z,18.12
2022-09-15T03:25:08.436Z,18.36
2022-09-15T03:27:35.650Z,18.09
2022-09-15T03:30:02.948Z,17.88
2022-09-15T03:32:29.887Z,17.68
2022-09-15T03:34:58.450Z,17.63
2022-09-15T03:37:26.093Z,17.79
2022-09-15T03:39:52.787Z,17.61
2022-09-15T03:42:19.948Z,17.92
2022-09-15T03:44:46.609Z,18.08
2022-09-15T03:47:13.305Z,18.20
2022-09-15T03:49:39.928Z,18.15
2022-09-15T03:52:06.719Z,18.30
2022-09-15T03:54:35.005Z,18.20
2022-09-15T03:57:01.831Z,18.34
2022-09-15T03:59:28.664Z,18.40
2022-09-15T04:01:55.403Z,18.36
2022-09-15T04:04:22.147Z,18.38
2022-09-15T04:06:48.811Z,18.48
2022-09-15T04:09:15.492Z,18.52
2022-09-15T04:11:42.779Z,18.46
2022-09-15T04:14:09.515Z,18.43
2022-09-15T04:16:36.636Z,18.49
2022-09-15T04:19:03.639Z,18.39
2022-09-15T04:21:31.722Z,18.45
2022-09-15T04:23:58.391Z,18.37
2022-09-15T04:26:29.094Z,18.03
2022-09-15T04:28:55.838Z,18.00
2022-09-15T04:31:22.713Z,17.90
2022-09-15T04:33:53.053Z,17.72
2022-09-15T04:36:22.564Z,17.92
2022-09-15T04:38:50.703Z,17.87
2022-09-15T04:41:18.151Z,17.88
2022-09-15T04:43:45.338Z,17.68
2022-09-15T04:46:13.098Z,17.73
2022-09-15T04:48:40.086Z,17.87
2022-09-15T04:51:10.381Z,18.08
2022-09-15T04:53:37.528Z,17.95
2022-09-15T04:56:05.059Z,18.00
2022-09-15T04:58:36.385Z,18.13
2022-09-15T05:01:10.972Z,18.17
2022-09-15T05:03:38.409Z,18.23
2022-09-15T05:06:10.771Z,18.17
2022-09-15T05:08:37.874Z,18.17
2022-09-15T05:11:06.827Z,18.18
2022-09-15T05:13:34.158Z,18.25
2022-09-15T05:16:19.670Z,18.34
2022-09-15T05:18:48.730Z,18.38
2022-09-15T05:21:17.450Z,18.44
2022-09-15T05:23:44.553Z,18.46
2022-09-15T05:26:14.008Z,18.31
2022-09-15T05:28:40.979Z,18.02
2022-09-15T05:31:10.291Z,18.02
2022-09-15T05:33:37.043Z,18.14
2022-09-15T05:36:04.314Z,18.06
2022-09-15T05:38:31.945Z,18.09
2022-09-15T05:41:07.242Z,18.10
2022-09-15T05:43:35.331Z,18.31
2022-09-15T05:46:02.568Z,18.13
2022-09-15T05:48:29.558Z,18.22
2022-09-15T05:50:57.333Z,18.18
2022-09-15T05:53:24.375Z,18.19
2022-09-15T05:55:56.222Z,18.24
2022-09-15T05:58:24.511Z,18.14
2022-09-15T06:00:53.298Z,18.12
2022-09-15T06:03:21.327Z,18.13
2022-09-15T06:05:48.160Z,18.14
2022-09-15T06:08:15.254Z,18.03
2022-09-15T06:10:42.281Z,17.93
2022-09-15T06:13:08.956Z,18.04
2022-09-15T06:15:35.752Z,18.10
2022-09-15T06:18:02.813Z,18.01
2022-09-15T06:20:29.449Z,18.00
2022-09-15T06:22:56.632Z,18.05
2022-09-15T06:25:23.277Z,18.09
2022-09-15T06:27:50.686Z,17.90
2022-09-15T06:30:17.934Z,18.07
2022-09-15T06:32:48.132Z,18.23
2022-09-15T06:35:15.606Z,18.38
2022-09-15T06:37:42.279Z,18.51
2022-09-15T06:40:10.217Z,18.61
2022-09-15T06:42:36.950Z,18.42
2022-09-15T06:45:04.485Z,18.59
2022-09-15T06:47:34.041Z,18.59
2022-09-15T06:50:01.327Z,18.67
2022-09-15T06:52:27.985Z,18.67
2022-09-15T06:54:54.679Z,18.84
2022-09-15T06:57:21.326Z,18.79
2022-09-15T06:59:47.961Z,18.99
2022-09-15T07:02:14.810Z,19.09
2022-09-15T07:04:41.611Z,19.00
2022-09-15T07:07:08.569Z,19.07
2022-09-15T07:09:35.595Z,19.18
2022-09-15T07:12:03.450Z,19.28
2022-09-15T07:14:30.300Z,19.41
2022-09-15T07:16:57.129Z,20.19
2022-09-15T07:19:23.937Z,20.71
2022-09-15T07:21:52.799Z,20.71
2022-09-15T07:24:19.526Z,20.39
2022-09-15T07:26:46.299Z,20.50
2022-09-15T07:29:13.158Z,21.54
2022-09-15T07:31:39.931Z,21.49
2022-09-15T07:34:07.029Z,20.96
2022-09-15T07:36:34.094Z,20.89
2022-09-15T07:39:00.755Z,20.25
2022-09-15T07:41:29.891Z,20.35
2022-09-15T07:43:58.315Z,20.41
2022-09-15T07:46:26.311Z,20.01
2022-09-15T07:48:57.347Z,20.01
2022-09-15T07:51:25.038Z,19.93
2022-09-15T07:53:52.353Z,19.70
2022-09-15T07:56:19.359Z,19.89
2022-09-15T07:58:47.196Z,19.86
2022-09-15T08:01:17.305Z,19.92
2022-09-15T08:03:46.500Z,19.78
2022-09-15T08:06:13.889Z,19.91
2022-09-15T08:08:41.304Z,19.85
2022-09-15T08:11:09.129Z,20.16
2022-09-15T08:13:36.454Z,20.02
2022-09-15T08:16:13.678Z,20.37
2022-09-15T08:18:42.334Z,20.21
2022-09-15T08:21:13.661Z,20.38
2022-09-15T08:23:40.563Z,20.23
2022-09-15T08:26:13.631Z,20.72
2022-09-15T08:28:40.971Z,20.53
2022-09-15T08:31:09.395Z,20.94
2022-09-15T08:33:36.637Z,20.89
2022-09-15T08:36:06.495Z,20.70
2022-09-15T08:38:33.606Z,20.96
2022-09-15T08:41:05.916Z,21.17
2022-09-15T08:43:39.431Z,21.19
2022-09-15T08:46:08.988Z,21.40
2022-09-15T08:48:48.300Z,21.32
2022-09-15T08:51:24.311Z,21.02
2022-09-15T08:53:55.856Z,21.13
2022-09-15T08:56:22.590Z,21.03
2022-09-15T08:58:49.379Z,20.98
2022-09-15T09:01:25.218Z,21.48
2022-09-15T09:04:18.130Z,21.56
2022-09-15T09:07:03.568Z,21.71
2022-09-15T09:09:48.384Z,21.67
2022-09-15T09:12:41.101Z,21.51
2022-09-15T09:15:13.676Z,21.53
2022-09-15T09:18:03.262Z,21.55
2022-09-15T09:20:32.065Z,21.79
2022-09-15T09:23:00.539Z,21.65
2022-09-15T09:25:28.483Z,21.58
2022-09-15T09:27:59.224Z,21.52
2022-09-15T09:30:28.040Z,21.61
2022-09-15T09:33:22.385Z,21.61
2022-09-15T09:35:54.891Z,21.67
2022-09-15T09:38:32.165Z,21.61
2022-09-15T09:41:02.357Z,21.73
2022-09-15T09:43:30.113Z,21.22
2022-09-15T09:45:57.045Z,21.23
2022-09-15T09:48:26.338Z,21.71
2022-09-15T09:50:53.068Z,21.69
2022-09-15T09:53:31.107Z,21.75
2022-09-15T09:56:26.503Z,21.90
2022-09-15T09:58:54.918Z,21.95
2022-09-15T10:01:26.003Z,22.07
2022-09-15T10:04:28.290Z,22.18
2022-09-15T10:06:55.861Z,22.26
2022-09-15T10:09:22.566Z,22.24
2022-09-15T10:11:59.064Z,21.65
2022-09-15T10:14:26.968Z,21.88
2022-09-15T10:16:58.713Z,22.04
2022-09-15T10:19:27.396Z,21.69
2022-09-15T10:21:54.448Z,21.82
2022-09-15T10:24:28.504Z,21.76
2022-09-15T10:27:10.872Z,22.15
2022-09-15T10:29:44.380Z,22.31
2022-09-15T10:32:25.375Z,22.26
2022-09-15T10:35:04.964Z,22.31
2022-09-15T10:37:37.132Z,22.24
2022-09-15T10:40:21.383Z,22.23
2022-09-15T10:42:53.345Z,22.00
2022-09-15T10:45:39.042Z,22.41
2022-09-15T10:48:17.921Z,22.28
2022-09-15T10:50:59.806Z,22.05
2022-09-15T10:53:35.723Z,22.48
2022-09-15T10:56:25.550Z,22.24
2022-09-15T10:59:40.171Z,22.02
2022-09-15T11:02:44.292Z,21.69
2022-09-15T11:05:21.964Z,22.16
2022-09-15T11:08:08.873Z,22.03
2022-09-15T11:11:13.840Z,21.33
2022-09-15T11:14:07.316Z,21.90
2022-09-15T11:16:34.016Z,21.69
2022-09-15T11:19:32.792Z,21.29
2022-09-15T11:22:07.739Z,21.34
2022-09-15T11:24:43.433Z,21.10
2022-09-15T11:27:19.430Z,21.29
2022-09-15T11:30:24.191Z,21.67
2022-09-15T11:33:06.941Z,21.64
2022-09-15T11:36:19.772Z,21.51
2022-09-15T11:39:02.380Z,21.65
2022-09-15T11:41:38.297Z,21.60
2022-09-15T11:44:19.105Z,21.62
2022-09-15T11:47:14.815Z,21.68
2022-09-15T11:49:58.139Z,21.62
2022-09-15T11:52:36.429Z,21.74
2022-09-15T11:55:25.631Z,21.76
2022-09-15T11:57:59.303Z,21.67
2022-09-15T12:00:26.348Z,21.36
2022-09-15T12:03:26.607Z,20.98
2022-09-15T12:06:08.705Z,21.00
2022-09-15T12:08:47.299Z,20.84
2022-09-15T12:11:18.801Z,21.07
2022-09-15T12:13:45.744Z,20.81
2022-09-15T12:16:12.894Z,20.77
2022-09-15T12:18:49.537Z,20.64
2022-09-15T12:21:42.091Z,20.75
2022-09-15T12:24:19.409Z,20.79
2022-09-15T12:26:47.609Z,21.00
2022-09-15T12:29:26.706Z,21.29
2022-09-15T12:32:21.350Z,21.12
2022-09-15T12:35:10.134Z,21.17
2022-09-15T12:37:58.150Z,21.46
2022-09-15T12:40:33.490Z,21.49
2022-09-15T12:43:18.548Z,22.13
2022-09-15T12:46:00.538Z,22.21
2022-09-15T12:48:29.469Z,22.21
2022-09-15T12:50:59.085Z,21.99
2022-09-15T12:53:31.102Z,22.19
2022-09-15T12:56:07.152Z,21.96
2022-09-15T12:58:40.124Z,22.11
2022-09-15T13:01:19.294Z,22.23
2022-09-15T13:03:46.719Z,22.08
2022-09-15T13:06:16.486Z,22.32
2022-09-15T13:08:48.551Z,22.39
2022-09-15T13:11:34.685Z,22.52
2022-09-15T13:14:16.800Z,22.74
2022-09-15T13:16:57.102Z,22.69
2022-09-15T13:19:41.909Z,22.70
2022-09-15T13:22:11.676Z,22.63
2022-09-15T13:25:02.945Z,22.66
2022-09-15T13:27:34.322Z,22.49
2022-09-15T13:30:19.720Z,22.35
2022-09-15T13:33:15.476Z,22.32
2022-09-15T13:35:51.598Z,22.48
2022-09-15T13:38:25.203Z,22.11
2022-09-15T13:41:15.415Z,22.08
2022-09-15T13:44:01.347Z,22.16
2022-09-15T13:47:02.767Z,22.38
2022-09-15T13:49:59.691Z,22.42
2022-09-15T13:52:37.934Z,22.44
2022-09-15T13:55:21.498Z,22.39
2022-09-15T14:00:49.210Z,22.37
2022-09-15T14:03:20.073Z,22.07
2022-09-15T14:05:47.146Z,21.86
2022-09-15T14:08:24.175Z,22.04
2022-09-15T14:10:55.651Z,21.98
2022-09-15T14:13:23.359Z,22.25
2022-09-15T14:16:00.639Z,22.36
2022-09-15T14:18:28.325Z,22.73
2022-09-15T14:21:03.128Z,21.74
2022-09-15T14:23:30.620Z,22.09
2022-09-15T14:26:01.110Z,22.17
2022-09-15T14:28:32.302Z,22.00
2022-09-15T14:31:00.193Z,22.18
2022-09-15T14:33:40.101Z,21.91
2022-09-15T14:36:33.634Z,21.99
2022-09-15T14:39:17.935Z,21.94
2022-09-15T14:41:46.206Z,22.07
2022-09-15T14:47:27.989Z,21.82
2022-09-15T14:50:12.139Z,21.60
2022-09-15T14:52:43.435Z,21.49
2022-09-15T14:55:41.352Z,21.58
2022-09-15T14:58:22.187Z,21.19
2022-09-15T15:01:02.249Z,21.34
2022-09-15T15:03:49.961Z,21.51
2022-09-15T15:06:28.946Z,21.67
2022-09-15T15:09:03.245Z,21.43
2022-09-15T15:11:31.602Z,21.40
2022-09-15T15:13:58.811Z,21.59
2022-09-15T15:16:28.183Z,21.57
2022-09-15T15:18:57.094Z,21.54
2022-09-15T15:21:42.013Z,21.32
2022-09-15T15:24:20.277Z,21.01
2022-09-15T15:26:49.008Z,21.24
2022-09-15T15:29:49.865Z,21.03
2022-09-15T15:32:33.506Z,21.12
2022-09-15T15:35:02.159Z,20.70
2022-09-15T15:37:36.028Z,20.93
2022-09-15T15:40:07.138Z,21.08
2022-09-15T15:42:36.775Z,21.00
2022-09-15T15:45:10.602Z,21.07
2022-09-15T15:47:37.655Z,20.57
2022-09-15T15:50:16.115Z,20.47
2022-09-15T15:52:43.967Z,20.63
2022-09-15T15:55:39.509Z,20.56
2022-09-15T15:58:06.764Z,20.58
2022-09-15T16:00:45.194Z,20.75
2022-09-15T16:03:13.592Z,20.52
2022-09-15T16:05:43.960Z,20.88
2022-09-15T16:08:17.280Z,21.08
2022-09-15T16:10:47.783Z,21.12
2022-09-15T16:13:18.804Z,21.12
2022-09-15T16:15:45.641Z,21.23
2022-09-15T16:18:12.886Z,21.17
2022-09-15T16:20:40.394Z,21.30
2022-09-15T16:23:07.404Z,21.41
2022-09-15T16:25:48.413Z,21.60
2022-09-15T16:28:15.679Z,21.52
2022-09-15T16:30:42.421Z,21.61
2022-09-15T16:33:13.448Z,21.41
2022-09-15T16:35:46.022Z,21.47
2022-09-15T16:38:12.666Z,21.53
2022-09-15T16:40:39.515Z,21.47
2022-09-15T16:43:10.968Z,21.54
2022-09-15T16:45:40.702Z,21.41
2022-09-15T16:48:09.202Z,21.40
2022-09-15T16:50:39.792Z,21.34
2022-09-15T16:53:14.296Z,21.31
2022-09-15T16:55:49.136Z,21.19
2022-09-15T16:58:17.216Z,21.34
2022-09-15T17:00:45.236Z,21.35
2022-09-15T17:03:16.650Z,21.36
2022-09-15T17:05:50.071Z,21.35
2022-09-15T17:08:24.668Z,21.27
2022-09-15T17:10:52.969Z,21.23
2022-09-15T17:13:25.061Z,21.37
2022-09-15T17:15:54.661Z,21.26
2022-09-15T17:18:21.978Z,21.22
2022-09-15T17:20:49.679Z,21.33
2022-09-15T17:23:39.811Z,21.36
2022-09-15T17:26:20.025Z,21.27
2022-09-15T17:28:47.153Z,21.25
2022-09-15T17:31:22.361Z,21.26
2022-09-15T17:33:50.736Z,21.36
2022-09-15T17:36:17.770Z,21.30
2022-09-15T17:38:48.961Z,21.35
2022-09-15T17:41:17.998Z,21.32
2022-09-15T17:43:45.144Z,21.28
2022-09-15T17:46:12.244Z,21.23
2022-09-15T17:48:39.192Z,21.09
2022-09-15T17:51:07.194Z,21.17
2022-09-15T17:53:34.238Z,21.07
2022-09-15T17:56:01.149Z,21.13
2022-09-15T17:58:29.934Z,21.06
2022-09-15T18:00:58.074Z,21.18
2022-09-15T18:03:27.964Z,21.15
2022-09-15T18:05:59.473Z,21.22
2022-09-15T18:08:28.901Z,21.26
2022-09-15T18:10:55.589Z,21.22
2022-09-15T18:13:26.467Z,21.01
2022-09-15T18:15:56.394Z,20.91
2022-09-15T18:18:25.471Z,20.97
2022-09-15T18:20:56.749Z,20.91
2022-09-15T18:23:25.614Z,20.88
2022-09-15T18:25:52.560Z,20.88
2022-09-15T18:28:19.376Z,20.90
2022-09-15T18:30:48.665Z,20.97
2022-09-15T18:33:25.748Z,21.01
2022-09-15T18:35:58.848Z,21.00
2022-09-15T18:38:28.600Z,20.86
2022-09-15T18:40:59.150Z,20.85
2022-09-15T18:43:27.351Z,20.81
2022-09-15T18:46:01.153Z,20.73
2022-09-15T18:48:28.358Z,20.81
2022-09-15T18:50:55.129Z,20.90
2022-09-15T18:53:22.114Z,20.73
2022-09-15T18:55:48.862Z,20.82
2022-09-15T18:58:15.770Z,20.80
2022-09-15T19:00:42.606Z,20.87
2022-09-15T19:03:09.660Z,20.78
2022-09-15T19:05:37.035Z,20.77
2022-09-15T19:08:04.590Z,20.76
2022-09-15T19:10:31.355Z,20.74
2022-09-15T19:12:58.086Z,20.70
2022-09-15T19:15:24.841Z,20.71
2022-09-15T19:17:51.717Z,20.61
2022-09-15T19:20:18.554Z,20.47
2022-09-15T19:22:46.113Z,20.36
2022-09-15T19:25:13.563Z,20.31
2022-09-15T19:27:41.220Z,20.42
2022-09-15T19:30:10.133Z,20.45
2022-09-15T19:32:37.818Z,20.35
2022-09-15T19:35:05.275Z,20.40
2022-09-15T19:37:32.066Z,20.45
2022-09-15T19:39:58.878Z,20.52
2022-09-15T19:42:26.440Z,20.53
2022-09-15T19:44:54.266Z,20.58
2022-09-15T19:47:21.348Z,20.52
2022-09-15T19:49:48.121Z,20.44
2022-09-15T19:52:14.818Z,20.28
2022-09-15T19:54:41.547Z,20.27
2022-09-15T19:57:08.753Z,20.20
2022-09-15T19:59:39.029Z,20.17
2022-09-15T20:02:06.181Z,20.09
2022-09-15T20:04:32.982Z,20.19
2022-09-15T20:07:02.400Z,20.25
2022-09-15T20:09:29.138Z,20.34
2022-09-15T20:11:55.770Z,20.27
2022-09-15T20:14:22.534Z,20.28
2022-09-15T20:16:49.418Z,20.22
2022-09-15T20:19:16.178Z,20.28
2022-09-15T20:21:50.210Z,20.54
2022-09-15T20:24:18.644Z,20.25
2022-09-15T20:26:45.358Z,20.24
2022-09-15T20:29:12.111Z,20.49
2022-09-15T20:31:38.804Z,20.43
2022-09-15T20:34:05.481Z,20.44
2022-09-15T20:36:36.320Z,20.34
2022-09-15T20:39:05.269Z,20.38
2022-09-15T20:41:32.414Z,20.38
2022-09-15T20:43:59.197Z,19.99
2022-09-15T20:46:26.119Z,19.56
2022-09-15T20:48:53.026Z,20.16
2022-09-15T20:51:27.909Z,20.04
2022-09-15T20:53:56.123Z,19.84
2022-09-15T20:56:25.575Z,19.34
2022-09-15T20:58:53.727Z,19.86
2022-09-15T21:01:26.077Z,19.35
2022-09-15T21:03:53.611Z,19.84
2022-09-15T21:06:23.900Z,20.17
2022-09-15T21:08:51.097Z,20.05
2022-09-15T21:11:19.449Z,20.01
2022-09-15T21:13:47.253Z,20.01
2022-09-15T21:16:16.366Z,20.04
2022-09-15T21:18:44.704Z,20.06
2022-09-15T21:21:20.555Z,20.09
2022-09-15T21:23:55.154Z,20.19
2022-09-15T21:26:22.935Z,19.92
2022-09-15T21:28:50.202Z,20.16
2022-09-15T21:31:19.285Z,19.96
2022-09-15T21:33:47.325Z,19.96
2022-09-15T21:36:17.469Z,19.88
2022-09-15T21:38:44.734Z,19.85
2022-09-15T21:41:16.302Z,20.02
2022-09-15T21:43:47.361Z,19.66
2022-09-15T21:46:19.576Z,19.53
2022-09-15T21:48:52.741Z,20.07
2022-09-15T21:51:24.623Z,20.01
2022-09-15T21:53:53.690Z,19.88
2022-09-15T21:56:21.117Z,19.68
2022-09-15T21:58:50.447Z,19.84
2022-09-15T22:01:19.785Z,19.62
2022-09-15T22:03:52.240Z,19.51
2022-09-15T22:06:30.025Z,19.48
2022-09-15T22:08:56.867Z,19.89
2022-09-15T22:11:23.734Z,19.29
2022-09-15T22:13:53.317Z,19.37
2022-09-15T22:16:21.667Z,19.75
2022-09-15T22:18:50.107Z,19.97
2022-09-15T22:21:19.043Z,19.73
2022-09-15T22:23:48.465Z,19.51
2022-09-15T22:26:17.955Z,19.56
2022-09-15T22:28:44.912Z,19.14
2022-09-15T22:31:16.949Z,19.68
2022-09-15T22:33:43.911Z,19.42
2022-09-15T22:36:11.863Z,19.61
2022-09-15T22:38:38.813Z,19.74
2022-09-15T22:41:12.199Z,19.49
2022-09-15T22:43:39.846Z,19.70
2022-09-15T22:46:07.130Z,19.73
2022-09-15T22:48:34.389Z,19.79
2022-09-15T22:51:04.200Z,19.49
2022-09-15T22:53:31.397Z,19.76
2022-09-15T22:56:14.486Z,19.50
2022-09-15T22:58:43.884Z,19.57
2022-09-15T23:01:16.444Z,19.77
2022-09-15T23:03:44.032Z,19.73
2022-09-15T23:06:11.013Z,19.28
2022-09-15T23:08:37.937Z,19.49
2022-09-15T23:11:10.797Z,19.38
2022-09-15T23:13:37.980Z,19.17
2022-09-15T23:16:05.853Z,19.54
2022-09-15T23:18:33.315Z,19.09
2022-09-15T23:21:02.468Z,19.04
2022-09-15T23:23:29.746Z,19.23
2022-09-15T23:25:56.646Z,19.05
2022-09-15T23:28:23.770Z,19.45
2022-09-15T23:30:54.994Z,19.24
2022-09-15T23:33:22.585Z,19.27
2022-09-15T23:35:49.445Z,19.44
2022-09-15T23:38:17.023Z,19.39
2022-09-15T23:40:43.999Z,19.39
2022-09-15T23:43:11.347Z,19.56
2022-09-15T23:45:38.439Z,19.48
2022-09-15T23:48:06.359Z,19.60
2022-09-15T23:50:37.401Z,19.55
2022-09-15T23:53:04.703Z,19.49
2022-09-15T23:55:31.820Z,19.15
2022-09-15T23:57:58.536Z,18.95
